Time,TemperatureF,DewpointF,PressureIn,WindDirection,WindDirectionDegrees,WindSpeedMPH,WindSpeedGustMPH,Humidity,HourlyPrecipIn,Conditions,Clouds,dailyrainin,SoftwareType,DateUTC
2013-02-08 00:02:00,22.6,21.0,30.12,SSW,212,0.0,-999.0,93,-99.99,,,0.08,weatherlink.com 1.10,2013-02-08 06:02:00,
2013-02-08 00:07:00,22.4,20.4,30.12,SSW,200,1.0,1.0,92,0.00,,,0.08,Wunderground v.1.15,2013-02-08 06:07:00,
2013-02-08 00:13:00,22.2,20.2,30.13,SW,218,0.0,1.0,92,0.00,,,0.08,Wunderground v.1.15,2013-02-08 06:13:00,
2013-02-08 00:19:00,22.2,20.2,30.13,South,188,0.0,1.0,92,0.00,,,0.08,Wunderground v.1.15,2013-02-08 06:19:00,
2013-02-08 00:24:00,22.1,20.1,30.13,SSW,201,0.0,1.0,92,0.00,,,0.08,Wunderground v.1.15,2013-02-08 06:24:00,
2013-02-08 00:30:00,22.0,20.0,30.13,South,179,0.0,0.0,92,0.00,,,0.08,Wunderground v.1.15,2013-02-08 06:30:00,
2013-02-08 00:36:00,21.9,19.9,30.13,SSW,209,0.0,1.0,92,0.00,,,0.08,Wunderground v.1.15,2013-02-08 06:36:00,
2013-02-08 00:42:00,21.9,19.9,30.14,SW,217,0.0,1.0,92,0.00,,,0.08,Wunderground v.1.15,2013-02-08 06:42:00,
2013-02-08 00:47:00,21.8,19.8,30.14,SSE,149,0.0,1.0,92,0.00,,,0.08,Wunderground v.1.15,2013-02-08 06:47:00,
2013-02-08 00:53:00,21.7,19.7,30.14,ESE,123,0.0,0.0,92,0.00,,,0.08,Wunderground v.1.15,2013-02-08 06:53:00,
2013-02-08 00:58:00,21.8,19.8,30.14,SSW,209,2.0,2.0,92,0.00,,,0.08,Wunderground v.1.15,2013-02-08 06:58:00,
2013-02-08 01:04:00,21.8,19.8,30.15,SE,124,0.0,1.0,92,0.00,,,0.00,Wunderground v.1.15,2013-02-08 07:04:00,
2013-02-08 01:10:00,21.8,19.8,30.15,SE,134,0.0,0.0,92,0.00,,,0.00,Wunderground v.1.15,2013-02-08 07:10:00,
2013-02-08 01:16:00,21.9,19.9,30.15,ESE,120,1.0,1.0,92,0.00,,,0.00,Wunderground v.1.15,2013-02-08 07:16:00,
2013-02-08 01:21:00,21.8,19.6,30.16,SE,132,0.0,0.0,91,0.00,,,0.00,Wunderground v.1.15,2013-02-08 07:21:00,
2013-02-08 01:27:00,21.6,19.4,30.16,South,191,0.0,1.0,91,0.00,,,0.00,Wunderground v.1.15,2013-02-08 07:27:00,
2013-02-08 01:33:00,21.5,19.3,30.17,SSE,156,0.0,1.0,91,0.00,,,0.00,Wunderground v.1.15,2013-02-08 07:33:00,
2013-02-08 01:39:00,21.4,19.2,30.18,SE,126,1.0,1.0,91,0.00,,,0.00,Wunderground v.1.15,2013-02-08 07:39:00,
2013-02-08 01:45:00,21.5,19.3,30.18,South,172,0.0,1.0,91,0.00,,,0.00,Wunderground v.1.15,2013-02-08 07:45:00,
2013-02-08 01:51:00,21.6,19.4,30.18,SSW,199,0.0,1.0,91,0.00,,,0.00,Wunderground v.1.15,2013-02-08 07:51:00,
2013-02-08 01:56:00,21.8,20.0,30.18,SSW,207,0.0,-999.0,91,-99.99,,,0.00,weatherlink.com 1.10,2013-02-08 07:56:00,
2013-02-08 02:01:00,22.0,19.8,30.18,SSE,161,1.0,3.0,91,0.00,,,0.00,Wunderground v.1.15,2013-02-08 08:01:00,
2013-02-08 02:06:00,22.1,19.9,30.18,SE,131,1.0,3.0,91,0.00,,,0.00,Wunderground v.1.15,2013-02-08 08:06:00,
2013-02-08 02:11:00,22.2,20.0,30.18,SSW,204,0.0,3.0,91,0.00,,,0.00,Wunderground v.1.15,2013-02-08 08:11:00,
2013-02-08 02:16:00,22.4,20.2,30.18,SSW,199,0.0,3.0,91,0.00,,,0.00,Wunderground v.1.15,2013-02-08 08:16:00,
2013-02-08 02:21:00,22.4,20.2,30.18,SW,218,1.0,1.0,91,0.00,,,0.00,Wunderground v.1.15,2013-02-08 08:21:00,
2013-02-08 02:26:00,22.5,20.3,30.18,SSW,208,0.0,2.0,91,0.00,,,0.00,Wunderground v.1.15,2013-02-08 08:26:00,
2013-02-08 02:31:00,22.6,20.1,30.18,South,189,0.0,3.0,90,0.00,,,0.00,Wunderground v.1.15,2013-02-08 08:31:00,
2013-02-08 02:36:00,22.6,20.1,30.18,ESE,109,0.0,4.0,90,0.00,,,0.00,Wunderground v.1.15,2013-02-08 08:36:00,
2013-02-08 02:41:00,22.7,20.2,30.19,South,172,1.0,3.0,90,0.00,,,0.00,Wunderground v.1.15,2013-02-08 08:41:00,
2013-02-08 02:46:00,22.7,20.2,30.19,SSW,211,0.0,3.0,90,0.00,,,0.00,Wunderground v.1.15,2013-02-08 08:46:00,
2013-02-08 02:52:00,22.7,20.5,30.19,South,170,0.0,2.0,91,0.00,,,0.00,Wunderground v.1.15,2013-02-08 08:52:00,
2013-02-08 02:57:00,22.8,20.3,30.19,SSW,205,1.0,2.0,90,0.00,,,0.00,Wunderground v.1.15,2013-02-08 08:57:00,
2013-02-08 03:02:00,22.8,20.3,30.19,East,94,1.0,4.0,90,0.00,,,0.00,Wunderground v.1.15,2013-02-08 09:02:00,
2013-02-08 03:07:00,22.8,20.3,30.19,South,171,0.0,4.0,90,0.00,,,0.00,Wunderground v.1.15,2013-02-08 09:07:00,
2013-02-08 03:12:00,22.9,20.4,30.19,SE,126,1.0,2.0,90,0.00,,,0.00,Wunderground v.1.15,2013-02-08 09:12:00,
2013-02-08 03:17:00,22.9,20.4,30.19,SE,142,1.0,6.0,90,0.00,,,0.00,Wunderground v.1.15,2013-02-08 09:17:00,
2013-02-08 03:22:00,22.9,20.4,30.19,SSW,207,0.0,2.0,90,0.00,,,0.00,Wunderground v.1.15,2013-02-08 09:22:00,
2013-02-08 03:27:00,22.9,20.4,30.19,SSW,208,1.0,2.0,90,0.00,,,0.00,Wunderground v.1.15,2013-02-08 09:27:00,
2013-02-08 03:32:00,22.9,20.4,30.20,SSE,147,1.0,3.0,90,0.00,,,0.00,Wunderground v.1.15,2013-02-08 09:32:00,
2013-02-08 03:37:00,22.9,20.1,30.20,South,172,0.0,4.0,89,0.00,,,0.00,Wunderground v.1.15,2013-02-08 09:37:00,
2013-02-08 03:42:00,22.9,20.1,30.21,South,187,0.0,1.0,89,0.00,,,0.00,Wunderground v.1.15,2013-02-08 09:42:00,
2013-02-08 03:47:00,22.9,20.1,30.21,SE,143,1.0,4.0,89,0.00,,,0.00,Wunderground v.1.15,2013-02-08 09:47:00,
2013-02-08 03:52:00,22.9,20.1,30.22,ESE,112,1.0,2.0,89,0.00,,,0.00,Wunderground v.1.15,2013-02-08 09:52:00,
2013-02-08 03:57:00,23.0,20.2,30.22,SW,224,1.0,2.0,89,0.00,,,0.00,Wunderground v.1.15,2013-02-08 09:57:00,
2013-02-08 04:02:00,22.9,20.4,30.22,SE,130,1.0,2.0,90,0.00,,,0.00,Wunderground v.1.15,2013-02-08 10:02:00,
2013-02-08 04:07:00,23.0,20.5,30.22,SSE,156,0.0,3.0,90,0.00,,,0.00,Wunderground v.1.15,2013-02-08 10:07:00,
2013-02-08 04:12:00,23.0,20.5,30.22,SSE,156,0.0,1.0,90,0.00,,,0.00,Wunderground v.1.15,2013-02-08 10:12:00,
2013-02-08 04:17:00,23.0,20.5,30.22,SW,214,1.0,2.0,90,0.00,,,0.00,Wunderground v.1.15,2013-02-08 10:17:00,
2013-02-08 04:22:00,23.0,20.5,30.22,SSW,193,1.0,3.0,90,0.00,,,0.00,Wunderground v.1.15,2013-02-08 10:22:00,
2013-02-08 04:27:00,23.0,20.5,30.22,SW,225,0.0,3.0,90,0.00,,,0.00,Wunderground v.1.15,2013-02-08 10:27:00,
2013-02-08 04:32:00,23.0,20.5,30.22,SE,145,0.0,3.0,90,0.00,,,0.00,Wunderground v.1.15,2013-02-08 10:32:00,
2013-02-08 04:37:00,23.0,20.5,30.23,SSW,203,0.0,3.0,90,0.00,,,0.00,Wunderground v.1.15,2013-02-08 10:37:00,
2013-02-08 04:42:00,23.0,20.5,30.23,ESE,120,0.0,2.0,90,0.00,,,0.00,Wunderground v.1.15,2013-02-08 10:42:00,
2013-02-08 04:47:00,23.0,20.5,30.24,SSE,156,0.0,2.0,90,0.00,,,0.00,Wunderground v.1.15,2013-02-08 10:47:00,
2013-02-08 04:52:00,23.1,20.3,30.24,SSE,156,0.0,2.0,89,0.00,,,0.00,Wunderground v.1.15,2013-02-08 10:52:00,
2013-02-08 04:57:00,23.1,20.3,30.24,SE,129,1.0,2.0,89,0.00,,,0.00,Wunderground v.1.15,2013-02-08 10:57:00,
2013-02-08 05:02:00,23.0,20.2,30.24,SSW,198,1.0,2.0,89,0.00,,,0.00,Wunderground v.1.15,2013-02-08 11:02:00,
2013-02-08 05:07:00,23.1,20.6,30.25,SE,132,1.0,2.0,90,0.00,,,0.00,Wunderground v.1.15,2013-02-08 11:07:00,
2013-02-08 05:12:00,23.1,20.3,30.25,SSE,150,1.0,4.0,89,0.00,,,0.00,Wunderground v.1.15,2013-02-08 11:12:00,
2013-02-08 05:17:00,23.1,20.3,30.25,SSW,199,1.0,4.0,89,0.00,,,0.00,Wunderground v.1.15,2013-02-08 11:17:00,
2013-02-08 05:23:00,23.1,20.3,30.25,SE,137,1.0,1.0,89,0.00,,,0.00,Wunderground v.1.15,2013-02-08 11:23:00,
2013-02-08 05:28:00,23.0,20.2,30.25,SE,131,0.0,2.0,89,0.00,,,0.00,Wunderground v.1.15,2013-02-08 11:28:00,
2013-02-08 05:33:00,23.0,20.2,30.26,SE,144,1.0,1.0,89,0.00,,,0.00,Wunderground v.1.15,2013-02-08 11:33:00,
2013-02-08 05:37:00,23.0,20.2,30.26,SSE,156,0.0,2.0,89,0.00,,,0.00,Wunderground v.1.15,2013-02-08 11:37:00,
2013-02-08 05:42:00,23.1,20.3,30.26,SW,218,0.0,2.0,89,0.00,,,0.00,Wunderground v.1.15,2013-02-08 11:42:00,
2013-02-08 05:47:00,23.1,20.3,30.26,SSE,161,0.0,4.0,89,0.00,,,0.00,Wunderground v.1.15,2013-02-08 11:47:00,
2013-02-08 05:52:00,23.1,20.3,30.26,SW,224,0.0,2.0,89,0.00,,,0.00,Wunderground v.1.15,2013-02-08 11:52:00,
2013-02-08 05:57:00,23.0,20.2,30.26,SE,146,0.0,2.0,89,0.00,,,0.00,Wunderground v.1.15,2013-02-08 11:57:00,
2013-02-08 06:02:00,23.1,20.3,30.27,SE,141,1.0,3.0,89,0.00,,,0.00,Wunderground v.1.15,2013-02-08 12:02:00,
2013-02-08 06:08:00,23.0,20.0,30.27,SSE,166,0.0,3.0,88,0.00,,,0.00,Wunderground v.1.15,2013-02-08 12:08:00,
2013-02-08 06:13:00,23.0,20.2,30.27,South,176,0.0,2.0,89,0.00,,,0.00,Wunderground v.1.15,2013-02-08 12:13:00,
2013-02-08 06:18:00,23.0,20.0,30.27,South,187,1.0,2.0,88,0.00,,,0.00,Wunderground v.1.15,2013-02-08 12:18:00,
2013-02-08 06:23:00,22.9,19.9,30.27,SW,224,0.0,1.0,88,0.00,,,0.00,Wunderground v.1.15,2013-02-08 12:23:00,
2013-02-08 06:28:00,22.8,19.8,30.27,SW,219,0.0,2.0,88,0.00,,,0.00,Wunderground v.1.15,2013-02-08 12:28:00,
2013-02-08 06:33:00,22.7,19.7,30.28,SE,134,0.0,1.0,88,0.00,,,0.00,Wunderground v.1.15,2013-02-08 12:33:00,
2013-02-08 06:38:00,22.6,19.6,30.28,SSW,210,0.0,2.0,88,0.00,,,0.00,Wunderground v.1.15,2013-02-08 12:38:00,
2013-02-08 06:43:00,22.5,19.5,30.28,SE,137,0.0,1.0,88,0.00,,,0.00,Wunderground v.1.15,2013-02-08 12:43:00,
2013-02-08 06:48:00,22.6,19.6,30.28,SE,137,0.0,1.0,88,0.00,,,0.00,Wunderground v.1.15,2013-02-08 12:48:00,
2013-02-08 06:53:00,22.5,19.7,30.28,South,170,0.0,2.0,89,0.00,,,0.00,Wunderground v.1.15,2013-02-08 12:53:00,
2013-02-08 06:58:00,22.7,20.5,30.29,SE,142,0.0,2.0,91,0.00,,,0.00,Wunderground v.1.15,2013-02-08 12:58:00,
2013-02-08 07:03:00,22.7,19.9,30.30,SSE,166,0.0,2.0,89,0.00,,,0.00,Wunderground v.1.15,2013-02-08 13:03:00,
2013-02-08 07:08:00,22.5,19.2,30.30,South,173,0.0,2.0,87,0.00,,,0.00,Wunderground v.1.15,2013-02-08 13:08:00,
2013-02-08 07:13:00,22.5,19.5,30.30,SSE,166,0.0,1.0,88,0.00,,,0.00,Wunderground v.1.15,2013-02-08 13:13:00,
2013-02-08 07:18:00,22.4,19.4,30.30,SSE,156,0.0,1.0,88,0.00,,,0.00,Wunderground v.1.15,2013-02-08 13:18:00,
2013-02-08 07:23:00,22.4,19.1,30.31,SSE,149,0.0,4.0,87,0.00,,,0.00,Wunderground v.1.15,2013-02-08 13:23:00,
2013-02-08 07:28:00,22.3,19.0,30.31,SE,137,1.0,4.0,87,0.00,,,0.00,Wunderground v.1.15,2013-02-08 13:28:00,
2013-02-08 07:33:00,22.2,18.9,30.32,SE,139,0.0,3.0,87,0.00,,,0.00,Wunderground v.1.15,2013-02-08 13:33:00,
2013-02-08 07:38:00,22.1,18.8,30.32,SE,146,1.0,3.0,87,0.00,,,0.00,Wunderground v.1.15,2013-02-08 13:38:00,
2013-02-08 07:43:00,22.0,18.7,30.32,SE,146,2.0,2.0,87,0.00,,,0.00,Wunderground v.1.15,2013-02-08 13:43:00,
2013-02-08 07:48:00,21.9,18.6,30.32,SSE,156,0.0,2.0,87,0.00,,,0.00,Wunderground v.1.15,2013-02-08 13:48:00,
2013-02-08 07:53:00,21.9,18.6,30.33,SSE,156,0.0,2.0,87,0.00,,,0.00,Wunderground v.1.15,2013-02-08 13:53:00,
2013-02-08 07:58:00,22.0,19.0,30.33,SE,145,0.0,2.0,88,0.00,,,0.00,Wunderground v.1.15,2013-02-08 13:58:00,
2013-02-08 08:03:00,22.0,18.7,30.33,SSW,212,0.0,2.0,87,0.00,,,0.00,Wunderground v.1.15,2013-02-08 14:03:00,
2013-02-08 08:08:00,21.9,18.6,30.33,SE,134,0.0,3.0,87,0.00,,,0.00,Wunderground v.1.15,2013-02-08 14:08:00,
2013-02-08 08:13:00,21.9,18.6,30.33,SSE,150,0.0,3.0,87,0.00,,,0.00,Wunderground v.1.15,2013-02-08 14:13:00,
2013-02-08 08:18:00,21.8,18.5,30.33,SSW,207,1.0,3.0,87,0.00,,,0.00,Wunderground v.1.15,2013-02-08 14:18:00,
2013-02-08 08:23:00,21.8,18.5,30.34,SSE,161,1.0,3.0,87,0.00,,,0.00,Wunderground v.1.15,2013-02-08 14:23:00,
2013-02-08 08:28:00,21.7,18.4,30.34,SE,132,1.0,3.0,87,0.00,,,0.00,Wunderground v.1.15,2013-02-08 14:28:00,
2013-02-08 08:33:00,21.5,18.0,30.34,SE,132,1.0,2.0,86,0.00,,,0.00,Wunderground v.1.15,2013-02-08 14:33:00,
2013-02-08 08:38:00,21.5,18.2,30.34,SE,124,0.0,2.0,87,0.00,,,0.00,Wunderground v.1.15,2013-02-08 14:38:00,
2013-02-08 08:43:00,21.3,17.8,30.35,SE,143,1.0,2.0,86,0.00,,,0.00,Wunderground v.1.15,2013-02-08 14:43:00,
2013-02-08 08:48:00,21.3,18.0,30.35,SSE,147,0.0,2.0,87,0.00,,,0.00,Wunderground v.1.15,2013-02-08 14:48:00,
2013-02-08 08:53:00,21.2,17.7,30.35,SSE,166,0.0,3.0,86,0.00,,,0.00,Wunderground v.1.15,2013-02-08 14:53:00,
2013-02-08 08:58:00,21.1,17.3,30.36,SSE,156,0.0,3.0,85,0.00,,,0.00,Wunderground v.1.15,2013-02-08 14:58:00,
2013-02-08 09:03:00,21.0,17.5,30.35,ESE,120,0.0,2.0,86,0.00,,,0.00,Wunderground v.1.15,2013-02-08 15:03:00,
2013-02-08 09:08:00,21.0,17.5,30.36,SE,133,1.0,3.0,86,0.00,,,0.00,Wunderground v.1.15,2013-02-08 15:08:00,
2013-02-08 09:13:00,21.0,17.5,30.36,ESE,113,1.0,2.0,86,0.00,,,0.00,Wunderground v.1.15,2013-02-08 15:13:00,
2013-02-08 09:19:00,21.0,17.5,30.36,SSE,166,0.0,2.0,86,0.00,,,0.00,Wunderground v.1.15,2013-02-08 15:19:00,
2013-02-08 09:24:00,21.0,17.2,30.36,SSW,201,0.0,2.0,85,0.00,,,0.00,Wunderground v.1.15,2013-02-08 15:24:00,
2013-02-08 09:29:00,20.8,17.0,30.36,SSE,156,1.0,4.0,85,0.00,,,0.00,Wunderground v.1.15,2013-02-08 15:29:00,
2013-02-08 09:34:00,20.9,17.1,30.37,South,173,0.0,2.0,85,0.00,,,0.00,Wunderground v.1.15,2013-02-08 15:34:00,
2013-02-08 09:39:00,21.2,17.7,30.37,SW,220,1.0,3.0,86,0.00,,,0.00,Wunderground v.1.15,2013-02-08 15:39:00,
2013-02-08 09:44:00,21.1,17.3,30.37,SE,124,1.0,3.0,85,0.00,,,0.00,Wunderground v.1.15,2013-02-08 15:44:00,
2013-02-08 09:49:00,21.2,17.7,30.37,ESE,120,0.0,3.0,86,0.00,,,0.00,Wunderground v.1.15,2013-02-08 15:49:00,
2013-02-08 09:54:00,21.4,17.6,30.38,SSW,195,0.0,2.0,85,0.00,,,0.00,Wunderground v.1.15,2013-02-08 15:54:00,
2013-02-08 09:59:00,21.8,18.8,30.38,SSE,149,1.0,3.0,88,0.00,,,0.00,Wunderground v.1.15,2013-02-08 15:59:00,
2013-02-08 10:04:00,22.1,18.6,30.37,East,88,0.0,2.0,86,0.00,,,0.00,Wunderground v.1.15,2013-02-08 16:04:00,
2013-02-08 10:09:00,22.3,18.7,30.37,SW,219,0.0,2.0,86,0.00,,,0.00,Wunderground v.1.15,2013-02-08 16:09:00,
2013-02-08 10:14:00,22.5,18.7,30.38,SE,137,1.0,4.0,85,0.00,,,0.00,Wunderground v.1.15,2013-02-08 16:14:00,
2013-02-08 10:19:00,22.6,18.8,30.38,SSW,209,0.0,1.0,85,0.00,,,0.00,Wunderground v.1.15,2013-02-08 16:19:00,
2013-02-08 10:24:00,23.0,19.4,30.38,SE,146,0.0,3.0,86,0.00,,,0.00,Wunderground v.1.15,2013-02-08 16:24:00,
2013-02-08 10:29:00,22.9,18.5,30.38,ESE,112,0.0,1.0,83,0.00,,,0.00,Wunderground v.1.15,2013-02-08 16:29:00,
2013-02-08 10:34:00,22.3,17.9,30.39,SE,125,1.0,3.0,83,0.00,,,0.00,Wunderground v.1.15,2013-02-08 16:34:00,
2013-02-08 10:39:00,22.0,17.6,30.39,SE,125,0.0,3.0,83,0.00,,,0.00,Wunderground v.1.15,2013-02-08 16:39:00,
2013-02-08 10:44:00,21.8,17.7,30.39,SW,226,1.0,2.0,84,0.00,,,0.00,Wunderground v.1.15,2013-02-08 16:44:00,
2013-02-08 10:49:00,21.8,17.4,30.39,SE,136,1.0,1.0,83,0.00,,,0.00,Wunderground v.1.15,2013-02-08 16:49:00,
2013-02-08 10:54:00,21.6,17.5,30.39,SE,137,0.0,4.0,84,0.00,,,0.00,Wunderground v.1.15,2013-02-08 16:54:00,
2013-02-08 10:59:00,21.8,18.3,30.40,SSW,210,2.0,2.0,86,0.00,,,0.00,Wunderground v.1.15,2013-02-08 16:59:00,
2013-02-08 11:04:00,22.3,18.7,30.39,SSW,210,0.0,2.0,86,0.00,,,0.00,Wunderground v.1.15,2013-02-08 17:04:00,
2013-02-08 11:10:00,22.4,18.3,30.39,South,179,2.0,2.0,84,0.00,,,0.00,Wunderground v.1.15,2013-02-08 17:10:00,
2013-02-08 11:15:00,22.3,18.2,30.39,SE,129,1.0,4.0,84,0.00,,,0.00,Wunderground v.1.15,2013-02-08 17:15:00,
2013-02-08 11:20:00,22.1,18.0,30.39,SE,141,0.0,1.0,84,0.00,,,0.00,Wunderground v.1.15,2013-02-08 17:20:00,
2013-02-08 11:25:00,22.3,18.5,30.39,SE,132,0.0,2.0,85,0.00,,,0.00,Wunderground v.1.15,2013-02-08 17:25:00,
2013-02-08 11:30:00,22.6,19.0,30.39,SSE,156,0.0,0.0,86,0.00,,,0.00,Wunderground v.1.15,2013-02-08 17:30:00,
2013-02-08 11:35:00,23.2,19.9,30.39,SE,130,0.0,2.0,87,0.00,,,0.00,Wunderground v.1.15,2013-02-08 17:35:00,
2013-02-08 11:40:00,23.3,19.2,30.39,South,181,0.0,1.0,84,0.00,,,0.00,Wunderground v.1.15,2013-02-08 17:40:00,
2013-02-08 11:45:00,23.3,19.2,30.39,SE,136,1.0,1.0,84,0.00,,,0.00,Wunderground v.1.15,2013-02-08 17:45:00,
2013-02-08 11:50:00,23.1,18.7,30.39,ESE,123,1.0,1.0,83,0.00,,,0.00,Wunderground v.1.15,2013-02-08 17:50:00,
2013-02-08 11:55:00,23.0,18.6,30.39,SE,126,0.0,2.0,83,0.00,,,0.00,Wunderground v.1.15,2013-02-08 17:55:00,
2013-02-08 12:00:00,23.1,18.7,30.39,ESE,122,2.0,2.0,83,0.00,,,0.00,Wunderground v.1.15,2013-02-08 18:00:00,
2013-02-08 12:05:00,23.0,18.6,30.39,ESE,120,0.0,2.0,83,0.00,,,0.00,Wunderground v.1.15,2013-02-08 18:05:00,
2013-02-08 12:10:00,23.2,19.1,30.39,SE,136,1.0,1.0,84,0.00,,,0.00,Wunderground v.1.15,2013-02-08 18:10:00,
2013-02-08 12:15:00,23.4,19.0,30.38,ESE,122,2.0,2.0,83,0.00,,,0.00,Wunderground v.1.15,2013-02-08 18:15:00,
2013-02-08 12:20:00,23.6,19.2,30.38,SE,141,0.0,2.0,83,0.00,,,0.00,Wunderground v.1.15,2013-02-08 18:20:00,
2013-02-08 12:25:00,23.8,19.4,30.39,ESE,103,0.0,2.0,83,0.00,,,0.00,Wunderground v.1.15,2013-02-08 18:25:00,
2013-02-08 12:30:00,23.9,19.5,30.39,SSE,151,1.0,1.0,83,0.00,,,0.00,Wunderground v.1.15,2013-02-08 18:30:00,
2013-02-08 12:35:00,24.2,19.8,30.39,South,190,1.0,3.0,83,0.00,,,0.00,Wunderground v.1.15,2013-02-08 18:35:00,
2013-02-08 12:41:00,24.0,19.0,30.39,SSE,166,0.0,2.0,81,0.00,,,0.00,Wunderground v.1.15,2013-02-08 18:41:00,
2013-02-08 12:46:00,23.8,19.4,30.39,ESE,116,0.0,2.0,83,0.00,,,0.00,Wunderground v.1.15,2013-02-08 18:46:00,
2013-02-08 12:51:00,24.0,19.6,30.39,SSW,211,1.0,2.0,83,0.00,,,0.00,Wunderground v.1.15,2013-02-08 18:51:00,
2013-02-08 12:56:00,24.4,20.3,30.40,SW,224,0.0,3.0,84,0.00,,,0.00,Wunderground v.1.15,2013-02-08 18:56:00,
2013-02-08 13:01:00,24.8,20.7,30.39,SE,132,1.0,2.0,84,0.00,,,0.00,Wunderground v.1.15,2013-02-08 19:01:00,
2013-02-08 13:06:00,24.7,20.3,30.39,SSW,199,0.0,3.0,83,0.00,,,0.00,Wunderground v.1.15,2013-02-08 19:06:00,
2013-02-08 13:11:00,25.2,20.8,30.39,WSW,252,0.0,2.0,83,0.00,,,0.00,Wunderground v.1.15,2013-02-08 19:11:00,
2013-02-08 13:16:00,25.2,20.2,30.39,ESE,117,0.0,2.0,81,0.00,,,0.00,Wunderground v.1.15,2013-02-08 19:16:00,
2013-02-08 13:21:00,25.2,20.5,30.39,SW,216,1.0,3.0,82,0.00,,,0.00,Wunderground v.1.15,2013-02-08 19:21:00,
2013-02-08 13:26:00,24.8,19.5,30.39,ESE,105,0.0,3.0,80,0.00,,,0.00,Wunderground v.1.15,2013-02-08 19:26:00,
2013-02-08 13:31:00,24.7,19.7,30.39,ESE,116,2.0,2.0,81,0.00,,,0.00,Wunderground v.1.15,2013-02-08 19:31:00,
2013-02-08 13:36:00,24.8,20.4,30.39,WSW,237,0.0,5.0,83,0.00,,,0.00,Wunderground v.1.15,2013-02-08 19:36:00,
2013-02-08 13:41:00,25.1,20.7,30.39,SW,218,1.0,2.0,83,0.00,,,0.00,Wunderground v.1.15,2013-02-08 19:41:00,
2013-02-08 13:46:00,25.5,20.5,30.39,South,180,0.0,3.0,81,0.00,,,0.00,Wunderground v.1.15,2013-02-08 19:46:00,
2013-02-08 13:51:00,26.1,21.4,30.39,WSW,242,0.0,1.0,82,0.00,,,0.00,Wunderground v.1.15,2013-02-08 19:51:00,
2013-02-08 13:56:00,26.2,20.9,30.39,South,180,0.0,2.0,80,0.00,,,0.00,Wunderground v.1.15,2013-02-08 19:56:00,
2013-02-08 14:01:00,26.3,21.3,30.39,SSW,213,0.0,1.0,81,0.00,,,0.00,Wunderground v.1.15,2013-02-08 20:01:00,
2013-02-08 14:06:00,26.4,20.8,30.39,ESE,121,0.0,2.0,79,0.00,,,0.00,Wunderground v.1.15,2013-02-08 20:06:00,
2013-02-08 14:11:00,26.2,20.3,30.39,SW,216,1.0,1.0,78,0.00,,,0.00,Wunderground v.1.15,2013-02-08 20:11:00,
2013-02-08 14:16:00,26.5,21.5,30.40,SSW,211,3.0,3.0,81,0.00,,,0.00,Wunderground v.1.15,2013-02-08 20:16:00,
2013-02-08 14:21:00,26.9,21.3,30.39,WSW,243,0.0,1.0,79,0.00,,,0.00,Wunderground v.1.15,2013-02-08 20:21:00,
2013-02-08 14:26:00,26.8,20.6,30.39,SE,124,0.0,2.0,77,0.00,,,0.00,Wunderground v.1.15,2013-02-08 20:26:00,
2013-02-08 14:31:00,26.5,20.3,30.39,SSW,204,0.0,2.0,77,0.00,,,0.01,Wunderground v.1.15,2013-02-08 20:31:00,
2013-02-08 14:36:00,26.1,19.6,30.39,SE,141,0.0,2.0,76,0.00,,,0.01,Wunderground v.1.15,2013-02-08 20:36:00,
2013-02-08 14:41:00,25.8,19.9,30.39,South,178,0.0,1.0,78,0.00,,,0.01,Wunderground v.1.15,2013-02-08 20:41:00,
2013-02-08 14:46:00,25.8,20.2,30.39,SSW,193,0.0,2.0,79,0.05,,,0.02,Wunderground v.1.15,2013-02-08 20:46:00,
2013-02-08 14:51:00,25.6,19.7,30.39,South,182,0.0,2.0,78,0.05,,,0.02,Wunderground v.1.15,2013-02-08 20:51:00,
2013-02-08 14:56:00,25.4,19.2,30.39,East,100,1.0,3.0,77,0.04,,,0.03,Wunderground v.1.15,2013-02-08 20:56:00,
2013-02-08 15:01:00,25.3,19.4,30.39,South,176,2.0,2.0,78,0.04,,,0.03,Wunderground v.1.15,2013-02-08 21:01:00,
2013-02-08 15:06:00,25.2,19.0,30.39,SSE,156,1.0,3.0,77,0.06,,,0.04,Wunderground v.1.15,2013-02-08 21:06:00,
2013-02-08 15:11:00,25.0,19.1,30.39,WSW,246,1.0,3.0,78,0.06,,,0.04,Wunderground v.1.15,2013-02-08 21:11:00,
2013-02-08 15:16:00,24.9,19.0,30.38,SE,145,0.0,3.0,78,0.05,,,0.04,Wunderground v.1.15,2013-02-08 21:16:00,
2013-02-08 15:21:00,25.0,19.4,30.39,SW,217,1.0,1.0,79,0.04,,,0.04,Wunderground v.1.15,2013-02-08 21:21:00,
2013-02-08 15:26:00,25.1,18.9,30.39,WSW,245,0.0,2.0,77,0.00,,,0.04,Wunderground v.1.15,2013-02-08 21:26:00,
2013-02-08 15:31:00,25.0,18.8,30.39,SSW,201,1.0,2.0,77,0.00,,,0.04,Wunderground v.1.15,2013-02-08 21:31:00,
2013-02-08 15:36:00,25.1,19.2,30.39,SE,139,1.0,2.0,78,0.00,,,0.04,Wunderground v.1.15,2013-02-08 21:36:00,
2013-02-08 15:41:00,25.0,18.8,30.39,SE,146,0.0,0.0,77,0.00,,,0.04,Wunderground v.1.15,2013-02-08 21:41:00,
2013-02-08 15:46:00,24.7,18.8,30.39,SE,133,0.0,2.0,78,0.00,,,0.04,Wunderground v.1.15,2013-02-08 21:46:00,
2013-02-08 15:51:00,24.8,19.2,30.39,ESE,122,1.0,1.0,79,0.00,,,0.04,Wunderground v.1.15,2013-02-08 21:51:00,
2013-02-08 15:56:00,24.9,18.7,30.39,South,172,0.0,2.0,77,0.00,,,0.04,Wunderground v.1.15,2013-02-08 21:56:00,
2013-02-08 16:01:00,24.8,18.9,30.38,SSE,161,0.0,1.0,78,0.00,,,0.04,Wunderground v.1.15,2013-02-08 22:01:00,
2013-02-08 16:07:00,24.9,19.0,30.38,SW,226,0.0,1.0,78,0.00,,,0.04,Wunderground v.1.15,2013-02-08 22:07:00,
2013-02-08 16:12:00,24.8,18.9,30.39,SSW,207,0.0,2.0,78,0.00,,,0.04,Wunderground v.1.15,2013-02-08 22:12:00,
2013-02-08 16:17:00,24.8,18.9,30.39,SW,216,0.0,2.0,78,0.00,,,0.04,Wunderground v.1.15,2013-02-08 22:17:00,
2013-02-08 16:22:00,24.7,18.8,30.39,SW,216,0.0,1.0,78,0.00,,,0.04,Wunderground v.1.15,2013-02-08 22:22:00,
2013-02-08 16:27:00,24.6,18.7,30.39,SW,216,0.0,1.0,78,0.00,,,0.04,Wunderground v.1.15,2013-02-08 22:27:00,
2013-02-08 16:32:00,24.5,18.6,30.39,SW,216,0.0,0.0,78,0.00,,,0.04,Wunderground v.1.15,2013-02-08 22:32:00,
2013-02-08 16:37:00,24.4,18.8,30.39,SW,224,1.0,1.0,79,0.00,,,0.04,Wunderground v.1.15,2013-02-08 22:37:00,
2013-02-08 16:42:00,24.3,18.7,30.39,SW,222,0.0,1.0,79,0.00,,,0.04,Wunderground v.1.15,2013-02-08 22:42:00,
2013-02-08 16:47:00,24.1,18.2,30.39,SW,222,0.0,1.0,78,0.00,,,0.04,Wunderground v.1.15,2013-02-08 22:47:00,
2013-02-08 16:52:00,23.9,18.3,30.39,SW,222,0.0,1.0,79,0.00,,,0.04,Wunderground v.1.15,2013-02-08 22:52:00,
2013-02-08 16:57:00,23.8,18.5,30.40,SW,222,0.0,1.0,80,0.00,,,0.04,Wunderground v.1.15,2013-02-08 22:57:00,
2013-02-08 17:02:00,23.6,18.3,30.40,SW,222,0.0,0.0,80,0.00,,,0.04,Wunderground v.1.15,2013-02-08 23:02:00,
2013-02-08 17:07:00,23.3,17.7,30.40,SW,222,1.0,1.0,79,0.00,,,0.04,Wunderground v.1.15,2013-02-08 23:07:00,
2013-02-08 17:12:00,23.0,17.7,30.40,SW,222,0.0,1.0,80,0.00,,,0.04,Wunderground v.1.15,2013-02-08 23:12:00,
2013-02-08 17:17:00,22.7,17.5,30.40,SW,222,0.0,1.0,80,0.00,,,0.04,Wunderground v.1.15,2013-02-08 23:17:00,
2013-02-08 17:22:00,22.5,17.5,30.40,SW,222,0.0,0.0,81,0.00,,,0.04,Wunderground v.1.15,2013-02-08 23:22:00,
2013-02-08 17:27:00,22.3,17.6,30.40,SW,222,0.0,0.0,82,0.00,,,0.04,Wunderground v.1.15,2013-02-08 23:27:00,
2013-02-08 17:32:00,22.1,17.2,30.40,SW,222,0.0,1.0,81,0.00,,,0.04,Wunderground v.1.15,2013-02-08 23:32:00,
2013-02-08 17:37:00,21.9,17.0,30.40,SW,222,0.0,1.0,81,0.00,,,0.04,Wunderground v.1.15,2013-02-08 23:37:00,
2013-02-08 17:42:00,21.8,17.2,30.40,SW,222,0.0,0.0,82,0.00,,,0.04,Wunderground v.1.15,2013-02-08 23:42:00,
2013-02-08 17:47:00,21.6,17.0,30.40,SW,222,0.0,0.0,82,0.00,,,0.04,Wunderground v.1.15,2013-02-08 23:47:00,
2013-02-08 17:52:00,21.5,17.1,30.40,SW,222,0.0,0.0,83,0.00,,,0.04,Wunderground v.1.15,2013-02-08 23:52:00,
2013-02-08 17:57:00,21.2,16.8,30.40,SW,222,0.0,0.0,83,0.00,,,0.04,Wunderground v.1.15,2013-02-08 23:57:00,
2013-02-08 18:02:00,21.0,16.6,30.40,SW,222,0.0,0.0,83,0.00,,,0.04,Wunderground v.1.15,2013-02-09 00:02:00,
2013-02-08 18:07:00,20.7,16.4,30.40,SW,222,0.0,0.0,83,0.00,,,0.04,Wunderground v.1.15,2013-02-09 00:07:00,
2013-02-08 18:12:00,20.6,16.5,30.40,SW,222,0.0,0.0,84,0.00,,,0.04,Wunderground v.1.15,2013-02-09 00:12:00,
2013-02-08 18:17:00,20.5,16.4,30.40,SW,222,0.0,1.0,84,0.00,,,0.04,Wunderground v.1.15,2013-02-09 00:17:00,
2013-02-08 18:22:00,20.4,16.3,30.40,SW,222,0.0,0.0,84,0.00,,,0.04,Wunderground v.1.15,2013-02-09 00:22:00,
2013-02-08 18:27:00,20.4,16.6,30.40,SW,222,0.0,0.0,85,0.00,,,0.04,Wunderground v.1.15,2013-02-09 00:27:00,
2013-02-08 18:32:00,20.3,16.5,30.40,SW,222,0.0,0.0,85,0.00,,,0.04,Wunderground v.1.15,2013-02-09 00:32:00,
2013-02-08 18:37:00,20.2,16.4,30.41,SW,222,0.0,0.0,85,0.00,,,0.04,Wunderground v.1.15,2013-02-09 00:37:00,
2013-02-08 18:42:00,20.2,16.4,30.40,SW,222,0.0,0.0,85,0.00,,,0.04,Wunderground v.1.15,2013-02-09 00:42:00,
2013-02-08 18:47:00,20.0,16.2,30.40,SW,222,0.0,0.0,85,0.00,,,0.04,Wunderground v.1.15,2013-02-09 00:47:00,
2013-02-08 18:52:00,19.9,16.1,30.41,SW,222,0.0,0.0,85,0.00,,,0.04,Wunderground v.1.15,2013-02-09 00:52:00,
2013-02-08 18:57:00,19.8,16.3,30.41,SW,222,0.0,0.0,86,0.00,,,0.04,Wunderground v.1.15,2013-02-09 00:57:00,
2013-02-08 19:02:00,19.6,16.1,30.41,SW,222,0.0,0.0,86,0.00,,,0.04,Wunderground v.1.15,2013-02-09 01:02:00,
2013-02-08 19:07:00,19.4,15.9,30.41,SW,222,0.0,0.0,86,0.00,,,0.04,Wunderground v.1.15,2013-02-09 01:07:00,
2013-02-08 19:12:00,19.3,15.8,30.41,SW,222,0.0,0.0,86,0.00,,,0.04,Wunderground v.1.15,2013-02-09 01:12:00,
2013-02-08 19:17:00,19.2,16.0,30.41,SW,222,0.0,0.0,87,0.00,,,0.04,Wunderground v.1.15,2013-02-09 01:17:00,
2013-02-08 19:22:00,19.0,15.5,30.42,SW,222,0.0,0.0,86,0.00,,,0.04,Wunderground v.1.15,2013-02-09 01:22:00,
2013-02-08 19:27:00,18.8,15.6,30.41,SW,222,0.0,0.0,87,0.00,,,0.04,Wunderground v.1.15,2013-02-09 01:27:00,
2013-02-08 19:32:00,18.6,15.4,30.42,SW,222,0.0,0.0,87,0.00,,,0.04,Wunderground v.1.15,2013-02-09 01:32:00,
2013-02-08 19:37:00,18.3,15.1,30.42,SW,222,0.0,0.0,87,0.00,,,0.04,Wunderground v.1.15,2013-02-09 01:37:00,
2013-02-08 19:42:00,18.1,14.9,30.42,SW,222,0.0,0.0,87,0.00,,,0.04,Wunderground v.1.15,2013-02-09 01:42:00,
2013-02-08 19:47:00,17.9,14.9,30.42,SW,222,0.0,0.0,88,0.00,,,0.04,Wunderground v.1.15,2013-02-09 01:47:00,
2013-02-08 19:52:00,17.6,14.4,30.42,SW,222,0.0,0.0,87,0.00,,,0.04,Wunderground v.1.15,2013-02-09 01:52:00,
2013-02-08 19:57:00,17.4,14.5,30.42,SW,222,0.0,0.0,88,0.00,,,0.04,Wunderground v.1.15,2013-02-09 01:57:00,
2013-02-08 20:02:00,17.2,14.3,30.42,SW,222,0.0,0.0,88,0.00,,,0.04,Wunderground v.1.15,2013-02-09 02:02:00,
2013-02-08 20:07:00,17.1,14.2,30.42,SW,222,0.0,0.0,88,0.00,,,0.04,Wunderground v.1.15,2013-02-09 02:07:00,
2013-02-08 20:12:00,17.0,14.1,30.42,SW,222,0.0,0.0,88,0.00,,,0.04,Wunderground v.1.15,2013-02-09 02:12:00,
2013-02-08 20:17:00,16.9,14.2,30.42,SW,222,0.0,0.0,89,0.00,,,0.04,Wunderground v.1.15,2013-02-09 02:17:00,
2013-02-08 20:22:00,16.8,14.1,30.42,SW,222,0.0,0.0,89,0.00,,,0.04,Wunderground v.1.15,2013-02-09 02:22:00,
2013-02-08 20:27:00,16.7,14.0,30.42,SW,222,0.0,0.0,89,0.00,,,0.04,Wunderground v.1.15,2013-02-09 02:27:00,
2013-02-08 20:32:00,16.6,13.9,30.42,SW,222,0.0,0.0,89,0.00,,,0.04,Wunderground v.1.15,2013-02-09 02:32:00,
2013-02-08 20:37:00,16.5,13.8,30.42,SW,222,0.0,0.0,89,0.00,,,0.04,Wunderground v.1.15,2013-02-09 02:37:00,
2013-02-08 20:42:00,16.4,13.7,30.42,SW,222,0.0,0.0,89,0.00,,,0.04,Wunderground v.1.15,2013-02-09 02:42:00,
2013-02-08 20:47:00,16.3,13.6,30.43,SW,222,0.0,0.0,89,0.00,,,0.04,Wunderground v.1.15,2013-02-09 02:47:00,
2013-02-08 20:52:00,16.2,13.5,30.43,SW,222,0.0,0.0,89,0.00,,,0.04,Wunderground v.1.15,2013-02-09 02:52:00,
2013-02-08 20:57:00,16.1,13.4,30.43,SW,222,0.0,0.0,89,0.00,,,0.04,Wunderground v.1.15,2013-02-09 02:57:00,
2013-02-08 21:02:00,16.0,13.3,30.43,SW,222,0.0,0.0,89,0.00,,,0.04,Wunderground v.1.15,2013-02-09 03:02:00,
2013-02-08 21:08:00,15.8,13.1,30.43,SW,222,0.0,0.0,89,0.00,,,0.04,Wunderground v.1.15,2013-02-09 03:08:00,
2013-02-08 21:13:00,15.7,13.0,30.43,SW,222,0.0,0.0,89,0.00,,,0.04,Wunderground v.1.15,2013-02-09 03:13:00,
2013-02-08 21:18:00,15.6,13.2,30.43,SW,222,0.0,0.0,90,0.00,,,0.04,Wunderground v.1.15,2013-02-09 03:18:00,
2013-02-08 21:23:00,15.6,13.2,30.43,SW,222,0.0,0.0,90,0.00,,,0.04,Wunderground v.1.15,2013-02-09 03:23:00,
2013-02-08 21:28:00,15.5,13.1,30.43,SW,222,0.0,0.0,90,0.00,,,0.04,Wunderground v.1.15,2013-02-09 03:28:00,
2013-02-08 21:33:00,15.5,13.1,30.43,SW,222,0.0,0.0,90,0.00,,,0.04,Wunderground v.1.15,2013-02-09 03:33:00,
2013-02-08 21:38:00,15.4,13.0,30.43,SW,222,0.0,0.0,90,0.00,,,0.04,Wunderground v.1.15,2013-02-09 03:38:00,
2013-02-08 21:43:00,15.3,12.9,30.42,SW,222,0.0,0.0,90,0.00,,,0.04,Wunderground v.1.15,2013-02-09 03:43:00,
2013-02-08 21:48:00,15.2,12.5,30.42,SW,222,0.0,0.0,89,0.00,,,0.04,Wunderground v.1.15,2013-02-09 03:48:00,
2013-02-08 21:53:00,14.9,12.2,30.42,SW,222,0.0,0.0,89,0.00,,,0.04,Wunderground v.1.15,2013-02-09 03:53:00,
2013-02-08 21:58:00,14.8,12.4,30.42,SW,222,0.0,0.0,90,0.00,,,0.04,Wunderground v.1.15,2013-02-09 03:58:00,
2013-02-08 22:03:00,14.7,12.3,30.42,SW,222,0.0,0.0,90,0.00,,,0.04,Wunderground v.1.15,2013-02-09 04:03:00,
2013-02-08 22:08:00,14.5,12.1,30.42,SW,222,0.0,0.0,90,0.00,,,0.04,Wunderground v.1.15,2013-02-09 04:08:00,
2013-02-08 22:13:00,14.5,12.1,30.42,SW,222,0.0,0.0,90,0.00,,,0.04,Wunderground v.1.15,2013-02-09 04:13:00,
2013-02-08 22:18:00,14.4,12.0,30.42,SW,222,0.0,0.0,90,0.00,,,0.04,Wunderground v.1.15,2013-02-09 04:18:00,
2013-02-08 22:23:00,14.2,11.8,30.42,SW,222,0.0,0.0,90,0.00,,,0.04,Wunderground v.1.15,2013-02-09 04:23:00,
2013-02-08 22:28:00,14.1,11.7,30.43,SW,222,0.0,0.0,90,0.00,,,0.04,Wunderground v.1.15,2013-02-09 04:28:00,
2013-02-08 22:33:00,14.0,11.6,30.42,SW,222,0.0,0.0,90,0.00,,,0.04,Wunderground v.1.15,2013-02-09 04:33:00,
2013-02-08 22:38:00,13.9,11.5,30.43,SW,222,0.0,0.0,90,0.00,,,0.04,Wunderground v.1.15,2013-02-09 04:38:00,
2013-02-08 22:43:00,13.7,11.3,30.42,SW,222,0.0,0.0,90,0.00,,,0.04,Wunderground v.1.15,2013-02-09 04:43:00,
2013-02-08 22:48:00,13.5,11.1,30.42,SW,222,0.0,0.0,90,0.00,,,0.04,Wunderground v.1.15,2013-02-09 04:48:00,
2013-02-08 22:53:00,13.3,10.9,30.42,SW,222,0.0,0.0,90,0.00,,,0.04,Wunderground v.1.15,2013-02-09 04:53:00,
2013-02-08 22:58:00,13.2,10.8,30.43,SW,222,0.0,0.0,90,0.00,,,0.04,Wunderground v.1.15,2013-02-09 04:58:00,
2013-02-08 23:00:00,13.2,10.8,30.43,SW,222,0.0,0.0,90,0.00,,,0.04,Wunderground v.1.15,2013-02-09 05:00:00,
2013-02-08 23:05:00,13.0,10.6,30.42,SW,222,0.0,0.0,90,0.00,,,0.04,Wunderground v.1.15,2013-02-09 05:05:00,
2013-02-08 23:10:00,12.9,10.5,30.42,SW,222,0.0,0.0,90,0.00,,,0.04,Wunderground v.1.15,2013-02-09 05:10:00,
2013-02-08 23:15:00,12.7,10.3,30.42,SW,222,0.0,0.0,90,0.00,,,0.04,Wunderground v.1.15,2013-02-09 05:15:00,
2013-02-08 23:20:00,12.5,10.1,30.42,SW,222,0.0,0.0,90,0.00,,,0.04,Wunderground v.1.15,2013-02-09 05:20:00,
2013-02-08 23:25:00,12.2,9.6,30.41,SW,222,0.0,0.0,89,0.00,,,0.04,Wunderground v.1.15,2013-02-09 05:25:00,
2013-02-08 23:30:00,12.1,9.7,30.42,SW,222,0.0,0.0,90,0.00,,,0.04,Wunderground v.1.15,2013-02-09 05:30:00,
2013-02-08 23:35:00,12.1,9.7,30.42,SW,222,0.0,0.0,90,0.00,,,0.04,Wunderground v.1.15,2013-02-09 05:35:00,
2013-02-08 23:40:00,12.2,10.1,30.42,SW,222,0.0,0.0,91,0.00,,,0.04,Wunderground v.1.15,2013-02-09 05:40:00,
2013-02-08 23:45:00,12.2,9.8,30.42,SW,222,0.0,0.0,90,0.00,,,0.04,Wunderground v.1.15,2013-02-09 05:45:00,
2013-02-08 23:50:00,12.1,9.7,30.42,SW,222,0.0,0.0,90,0.00,,,0.04,Wunderground v.1.15,2013-02-09 05:50:00,
2013-02-08 23:55:00,12.1,10.0,30.43,SW,222,0.0,0.0,91,0.00,,,0.04,Wunderground v.1.15,2013-02-09 05:55:00,